sensor_id;sensor_type;location;lat;lon;timestamp;P1;durP1;ratioP1;P2;durP2;ratioP2
2710;SDS011;20721;47.402;8.550;2023-04-03T00:00:20;5.53;;;5.53;;
2710;SDS011;20721;47.402;8.550;2023-04-03T00:01:20;5.67;;;5.67;;
2710;SDS011;20721;47.402;8.550;2023-04-03T00:02:20;6.49;;;6.49;;
2710;SDS011;20721;47.402;8.550;2023-04-03T00:03:20;6.39;;;6.39;;
2710;SDS011;20721;47.402;8.550;2023-04-03T00:04:20;7.51;;;7.26;;
2710;SDS011;20721;47.402;8.550;2023-04-03T00:05:20;6.64;;;6.48;;
2710;SDS011;20721;47.402;8.550;2023-04-03T00:06:22;7.07;;;7.06;;
2710;SDS011;20721;47.402;8.550;2023-04-03T00:07:20;6.53;;;6.53;;
2710;SDS011;20721;47.402;8.550;2023-04-03T00:08:20;6.88;;;6.88;;
2710;SDS011;20721;47.402;8.550;2023-04-03T00:09:21;6.30;;;6.13;;
2710;SDS011;20721;47.402;8.550;2023-04-03T00:10:20;6.35;;;6.33;;
2710;SDS011;20721;47.402;8.550;2023-04-03T00:11:20;6.22;;;6.22;;
2710;SDS011;20721;47.402;8.550;2023-04-03T00:12:21;6.54;;;6.54;;
2710;SDS011;20721;47.402;8.550;2023-04-03T00:14:20;5.33;;;5.33;;
2710;SDS011;20721;47.402;8.550;2023-04-03T00:15:20;5.33;;;5.16;;
2710;SDS011;20721;47.402;8.550;2023-04-03T00:16:20;5.65;;;5.51;;
2710;SDS011;20721;47.402;8.550;2023-04-03T00:17:20;5.76;;;5.73;;
2710;SDS011;20721;47.402;8.550;2023-04-03T00:18:20;5.32;;;5.32;;
2710;SDS011;20721;47.402;8.550;2023-04-03T00:20:20;4.84;;;4.84;;
2710;SDS011;20721;47.402;8.550;2023-04-03T00:21:22;5.00;;;5.00;;
2710;SDS011;20721;47.402;8.550;2023-04-03T00:22:20;5.10;;;5.10;;
2710;SDS011;20721;47.402;8.550;2023-04-03T00:24:20;4.64;;;4.64;;
2710;SDS011;20721;47.402;8.550;2023-04-03T00:25:20;4.42;;;4.42;;
2710;SDS011;20721;47.402;8.550;2023-04-03T00:26:20;4.17;;;4.17;;
2710;SDS011;20721;47.402;8.550;2023-04-03T00:27:21;4.49;;;4.41;;
2710;SDS011;20721;47.402;8.550;2023-04-03T00:28:20;4.91;;;4.68;;
2710;SDS011;20721;47.402;8.550;2023-04-03T00:29:20;4.62;;;4.43;;
2710;SDS011;20721;47.402;8.550;2023-04-03T00:30:22;3.51;;;3.51;;
2710;SDS011;20721;47.402;8.550;2023-04-03T00:31:20;4.10;;;4.10;;
2710;SDS011;20721;47.402;8.550;2023-04-03T00:32:20;4.44;;;4.44;;
2710;SDS011;20721;47.402;8.550;2023-04-03T00:33:21;4.85;;;4.85;;
2710;SDS011;20721;47.402;8.550;2023-04-03T00:34:20;4.15;;;4.15;;
2710;SDS011;20721;47.402;8.550;2023-04-03T00:35:20;4.32;;;4.32;;
2710;SDS011;20721;47.402;8.550;2023-04-03T00:36:21;4.63;;;4.63;;
2710;SDS011;20721;47.402;8.550;2023-04-03T00:37:20;4.19;;;4.19;;
2710;SDS011;20721;47.402;8.550;2023-04-03T00:38:20;3.84;;;3.84;;
2710;SDS011;20721;47.402;8.550;2023-04-03T00:39:20;3.91;;;3.84;;
2710;SDS011;20721;47.402;8.550;2023-04-03T00:40:22;4.26;;;4.26;;
2710;SDS011;20721;47.402;8.550;2023-04-03T00:42:21;4.70;;;4.70;;
2710;SDS011;20721;47.402;8.550;2023-04-03T00:43:23;4.76;;;4.76;;
2710;SDS011;20721;47.402;8.550;2023-04-03T00:45:23;4.84;;;4.84;;
2710;SDS011;20721;47.402;8.550;2023-04-03T00:46:20;5.35;;;5.35;;
2710;SDS011;20721;47.402;8.550;2023-04-03T00:47:21;4.86;;;4.86;;
2710;SDS011;20721;47.402;8.550;2023-04-03T00:48:39;5.42;;;5.40;;
2710;SDS011;20721;47.402;8.550;2023-04-03T00:49:20;5.46;;;5.46;;
2710;SDS011;20721;47.402;8.550;2023-04-03T00:50:20;5.33;;;5.33;;
2710;SDS011;20721;47.402;8.550;2023-04-03T00:51:23;5.36;;;5.36;;
2710;SDS011;20721;47.402;8.550;2023-04-03T00:52:25;5.46;;;5.46;;
2710;SDS011;20721;47.402;8.550;2023-04-03T00:53:24;4.87;;;4.87;;
2710;SDS011;20721;47.402;8.550;2023-04-03T00:56:23;5.02;;;4.91;;
2710;SDS011;20721;47.402;8.550;2023-04-03T00:57:21;5.58;;;5.40;;
2710;SDS011;20721;47.402;8.550;2023-04-03T00:58:21;5.00;;;4.95;;
2710;SDS011;20721;47.402;8.550;2023-04-03T00:59:24;5.15;;;5.15;;
2710;SDS011;20721;47.402;8.550;2023-04-03T01:00:22;5.65;;;5.60;;
2710;SDS011;20721;47.402;8.550;2023-04-03T01:01:23;4.98;;;4.98;;
2710;SDS011;20721;47.402;8.550;2023-04-03T01:02:20;5.45;;;5.45;;
2710;SDS011;20721;47.402;8.550;2023-04-03T01:03:20;5.57;;;5.57;;
2710;SDS011;20721;47.402;8.550;2023-04-03T01:04:31;5.71;;;5.71;;
2710;SDS011;20721;47.402;8.550;2023-04-03T01:05:20;5.87;;;5.87;;
2710;SDS011;20721;47.402;8.550;2023-04-03T01:06:31;5.26;;;5.26;;
2710;SDS011;20721;47.402;8.550;2023-04-03T01:07:26;6.07;;;5.95;;
2710;SDS011;20721;47.402;8.550;2023-04-03T01:08:20;6.39;;;6.15;;
2710;SDS011;20721;47.402;8.550;2023-04-03T01:10:23;4.94;;;4.94;;
2710;SDS011;20721;47.402;8.550;2023-04-03T01:11:20;5.89;;;5.87;;
2710;SDS011;20721;47.402;8.550;2023-04-03T01:12:29;5.82;;;5.82;;
2710;SDS011;20721;47.402;8.550;2023-04-03T01:13:29;6.46;;;6.25;;
2710;SDS011;20721;47.402;8.550;2023-04-03T01:14:20;5.23;;;5.23;;
2710;SDS011;20721;47.402;8.550;2023-04-03T01:15:23;5.97;;;5.97;;
2710;SDS011;20721;47.402;8.550;2023-04-03T01:16:20;5.73;;;5.73;;
2710;SDS011;20721;47.402;8.550;2023-04-03T01:17:33;5.45;;;5.45;;
2710;SDS011;20721;47.402;8.550;2023-04-03T01:18:21;5.53;;;5.53;;
2710;SDS011;20721;47.402;8.550;2023-04-03T01:19:25;5.83;;;5.83;;
2710;SDS011;20721;47.402;8.550;2023-04-03T01:22:30;5.01;;;5.01;;
2710;SDS011;20721;47.402;8.550;2023-04-03T01:23:32;5.39;;;5.39;;
2710;SDS011;20721;47.402;8.550;2023-04-03T01:24:29;5.78;;;5.78;;
2710;SDS011;20721;47.402;8.550;2023-04-03T01:25:20;5.60;;;5.60;;
2710;SDS011;20721;47.402;8.550;2023-04-03T01:26:21;5.85;;;5.85;;
2710;SDS011;20721;47.402;8.550;2023-04-03T01:27:21;5.56;;;5.56;;
2710;SDS011;20721;47.402;8.550;2023-04-03T01:28:28;6.68;;;6.44;;
2710;SDS011;20721;47.402;8.550;2023-04-03T01:30:21;6.79;;;6.79;;
2710;SDS011;20721;47.402;8.550;2023-04-03T01:31:26;6.08;;;6.08;;
2710;SDS011;20721;47.402;8.550;2023-04-03T01:32:20;5.63;;;5.63;;
2710;SDS011;20721;47.402;8.550;2023-04-03T01:33:20;6.22;;;6.22;;
2710;SDS011;20721;47.402;8.550;2023-04-03T01:34:20;5.69;;;5.69;;
2710;SDS011;20721;47.402;8.550;2023-04-03T01:35:20;5.95;;;5.95;;
2710;SDS011;20721;47.402;8.550;2023-04-03T01:36:28;5.96;;;5.96;;
2710;SDS011;20721;47.402;8.550;2023-04-03T01:37:20;6.27;;;6.27;;
2710;SDS011;20721;47.402;8.550;2023-04-03T01:38:20;5.92;;;5.92;;
2710;SDS011;20721;47.402;8.550;2023-04-03T01:39:20;5.85;;;5.85;;
2710;SDS011;20721;47.402;8.550;2023-04-03T01:40:20;6.55;;;6.55;;
2710;SDS011;20721;47.402;8.550;2023-04-03T01:41:20;6.18;;;6.18;;
2710;SDS011;20721;47.402;8.550;2023-04-03T01:42:21;5.97;;;5.97;;
2710;SDS011;20721;47.402;8.550;2023-04-03T01:43:20;5.65;;;5.65;;
2710;SDS011;20721;47.402;8.550;2023-04-03T01:44:20;6.15;;;6.15;;
2710;SDS011;20721;47.402;8.550;2023-04-03T01:45:20;5.83;;;5.83;;
2710;SDS011;20721;47.402;8.550;2023-04-03T01:46:20;6.41;;;6.41;;
2710;SDS011;20721;47.402;8.550;2023-04-03T01:47:20;6.98;;;6.98;;
2710;SDS011;20721;47.402;8.550;2023-04-03T01:48:20;5.54;;;5.46;;
2710;SDS011;20721;47.402;8.550;2023-04-03T01:49:20;6.98;;;6.93;;
2710;SDS011;20721;47.402;8.550;2023-04-03T01:50:20;6.59;;;6.59;;
2710;SDS011;20721;47.402;8.550;2023-04-03T01:51:20;6.45;;;6.45;;
2710;SDS011;20721;47.402;8.550;2023-04-03T01:52:20;7.58;;;7.58;;
2710;SDS011;20721;47.402;8.550;2023-04-03T01:53:20;6.74;;;6.74;;
2710;SDS011;20721;47.402;8.550;2023-04-03T01:54:20;7.09;;;7.09;;
2710;SDS011;20721;47.402;8.550;2023-04-03T01:55:20;7.52;;;7.52;;
2710;SDS011;20721;47.402;8.550;2023-04-03T01:56:20;8.14;;;8.14;;
2710;SDS011;20721;47.402;8.550;2023-04-03T01:57:20;7.03;;;7.03;;
2710;SDS011;20721;47.402;8.550;2023-04-03T01:58:20;8.03;;;8.03;;
2710;SDS011;20721;47.402;8.550;2023-04-03T01:59:20;7.07;;;7.07;;
2710;SDS011;20721;47.402;8.550;2023-04-03T02:00:20;6.81;;;6.81;;
2710;SDS011;20721;47.402;8.550;2023-04-03T02:01:20;7.91;;;7.91;;
2710;SDS011;20721;47.402;8.550;2023-04-03T02:02:22;7.92;;;7.92;;
2710;SDS011;20721;47.402;8.550;2023-04-03T02:03:20;8.42;;;8.42;;
2710;SDS011;20721;47.402;8.550;2023-04-03T02:04:21;8.27;;;8.27;;
2710;SDS011;20721;47.402;8.550;2023-04-03T02:05:20;7.79;;;7.79;;
2710;SDS011;20721;47.402;8.550;2023-04-03T02:06:23;7.41;;;7.41;;
2710;SDS011;20721;47.402;8.550;2023-04-03T02:07:20;7.90;;;7.90;;
2710;SDS011;20721;47.402;8.550;2023-04-03T02:08:20;8.12;;;8.12;;
2710;SDS011;20721;47.402;8.550;2023-04-03T02:09:20;7.05;;;7.05;;
2710;SDS011;20721;47.402;8.550;2023-04-03T02:10:20;7.44;;;7.44;;
2710;SDS011;20721;47.402;8.550;2023-04-03T02:11:20;7.35;;;7.35;;
2710;SDS011;20721;47.402;8.550;2023-04-03T02:12:20;8.35;;;8.35;;
2710;SDS011;20721;47.402;8.550;2023-04-03T02:13:20;7.86;;;7.86;;
2710;SDS011;20721;47.402;8.550;2023-04-03T02:14:20;8.67;;;8.67;;
2710;SDS011;20721;47.402;8.550;2023-04-03T02:15:20;8.26;;;8.26;;
2710;SDS011;20721;47.402;8.550;2023-04-03T02:16:21;7.82;;;7.82;;
2710;SDS011;20721;47.402;8.550;2023-04-03T02:17:20;8.04;;;8.04;;
2710;SDS011;20721;47.402;8.550;2023-04-03T02:18:21;7.75;;;7.75;;
2710;SDS011;20721;47.402;8.550;2023-04-03T02:19:20;8.21;;;8.21;;
2710;SDS011;20721;47.402;8.550;2023-04-03T02:20:20;8.13;;;8.13;;
2710;SDS011;20721;47.402;8.550;2023-04-03T02:21:20;8.23;;;8.23;;
2710;SDS011;20721;47.402;8.550;2023-04-03T02:22:20;8.93;;;8.93;;
2710;SDS011;20721;47.402;8.550;2023-04-03T02:23:20;8.57;;;8.57;;
2710;SDS011;20721;47.402;8.550;2023-04-03T02:24:20;8.64;;;8.58;;
2710;SDS011;20721;47.402;8.550;2023-04-03T02:25:20;8.19;;;8.19;;
2710;SDS011;20721;47.402;8.550;2023-04-03T02:26:21;8.28;;;8.28;;
2710;SDS011;20721;47.402;8.550;2023-04-03T02:27:20;8.62;;;8.62;;
2710;SDS011;20721;47.402;8.550;2023-04-03T02:28:21;8.41;;;8.41;;
2710;SDS011;20721;47.402;8.550;2023-04-03T02:29:20;8.21;;;8.21;;
2710;SDS011;20721;47.402;8.550;2023-04-03T02:30:21;7.70;;;7.70;;
2710;SDS011;20721;47.402;8.550;2023-04-03T02:31:20;7.76;;;7.76;;
2710;SDS011;20721;47.402;8.550;2023-04-03T02:32:20;8.30;;;8.30;;
2710;SDS011;20721;47.402;8.550;2023-04-03T02:33:21;8.64;;;8.58;;
2710;SDS011;20721;47.402;8.550;2023-04-03T02:34:21;7.64;;;7.64;;
2710;SDS011;20721;47.402;8.550;2023-04-03T02:35:21;8.46;;;8.42;;
2710;SDS011;20721;47.402;8.550;2023-04-03T02:36:20;7.44;;;7.44;;
2710;SDS011;20721;47.402;8.550;2023-04-03T02:37:20;7.74;;;7.74;;
2710;SDS011;20721;47.402;8.550;2023-04-03T02:38:20;7.33;;;7.33;;
2710;SDS011;20721;47.402;8.550;2023-04-03T02:39:21;7.31;;;7.31;;
2710;SDS011;20721;47.402;8.550;2023-04-03T02:40:21;7.34;;;7.34;;
2710;SDS011;20721;47.402;8.550;2023-04-03T02:41:21;7.74;;;7.74;;
2710;SDS011;20721;47.402;8.550;2023-04-03T02:42:20;7.16;;;7.16;;
2710;SDS011;20721;47.402;8.550;2023-04-03T02:43:20;6.84;;;6.84;;
2710;SDS011;20721;47.402;8.550;2023-04-03T02:44:20;7.28;;;7.28;;
2710;SDS011;20721;47.402;8.550;2023-04-03T02:45:20;6.61;;;6.61;;
2710;SDS011;20721;47.402;8.550;2023-04-03T02:46:20;6.59;;;6.59;;
2710;SDS011;20721;47.402;8.550;2023-04-03T02:47:20;7.21;;;7.21;;
2710;SDS011;20721;47.402;8.550;2023-04-03T02:48:20;7.23;;;7.23;;
2710;SDS011;20721;47.402;8.550;2023-04-03T02:49:20;6.47;;;6.47;;
2710;SDS011;20721;47.402;8.550;2023-04-03T02:50:20;7.15;;;7.09;;
2710;SDS011;20721;47.402;8.550;2023-04-03T02:51:20;7.14;;;7.12;;
2710;SDS011;20721;47.402;8.550;2023-04-03T02:52:20;5.98;;;5.98;;
2710;SDS011;20721;47.402;8.550;2023-04-03T02:53:20;6.47;;;6.36;;
2710;SDS011;20721;47.402;8.550;2023-04-03T02:54:20;6.35;;;6.35;;
2710;SDS011;20721;47.402;8.550;2023-04-03T02:55:23;6.49;;;6.49;;
2710;SDS011;20721;47.402;8.550;2023-04-03T02:56:20;5.58;;;5.58;;
2710;SDS011;20721;47.402;8.550;2023-04-03T02:58:20;6.30;;;6.30;;
2710;SDS011;20721;47.402;8.550;2023-04-03T02:59:20;5.38;;;5.38;;
2710;SDS011;20721;47.402;8.550;2023-04-03T03:00:20;5.57;;;5.57;;
2710;SDS011;20721;47.402;8.550;2023-04-03T03:01:21;5.37;;;5.37;;
2710;SDS011;20721;47.402;8.550;2023-04-03T03:02:20;5.64;;;5.64;;
2710;SDS011;20721;47.402;8.550;2023-04-03T03:03:20;5.79;;;5.79;;
2710;SDS011;20721;47.402;8.550;2023-04-03T03:04:20;5.46;;;5.46;;
2710;SDS011;20721;47.402;8.550;2023-04-03T03:05:20;5.53;;;5.53;;
2710;SDS011;20721;47.402;8.550;2023-04-03T03:06:21;5.67;;;5.67;;
2710;SDS011;20721;47.402;8.550;2023-04-03T03:07:20;4.92;;;4.92;;
2710;SDS011;20721;47.402;8.550;2023-04-03T03:09:20;5.22;;;5.22;;
2710;SDS011;20721;47.402;8.550;2023-04-03T03:11:21;5.63;;;5.63;;
2710;SDS011;20721;47.402;8.550;2023-04-03T03:12:20;6.39;;;6.15;;
2710;SDS011;20721;47.402;8.550;2023-04-03T03:13:20;6.04;;;6.04;;
2710;SDS011;20721;47.402;8.550;2023-04-03T03:14:20;5.66;;;5.66;;
2710;SDS011;20721;47.402;8.550;2023-04-03T03:15:20;5.35;;;5.35;;
2710;SDS011;20721;47.402;8.550;2023-04-03T03:16:20;5.71;;;5.71;;
2710;SDS011;20721;47.402;8.550;2023-04-03T03:17:20;6.07;;;6.07;;
2710;SDS011;20721;47.402;8.550;2023-04-03T03:18:20;5.29;;;5.29;;
2710;SDS011;20721;47.402;8.550;2023-04-03T03:19:20;5.77;;;5.77;;
2710;SDS011;20721;47.402;8.550;2023-04-03T03:20:21;6.25;;;6.25;;
2710;SDS011;20721;47.402;8.550;2023-04-03T03:23:21;6.65;;;6.65;;
2710;SDS011;20721;47.402;8.550;2023-04-03T03:25:20;5.59;;;5.59;;
2710;SDS011;20721;47.402;8.550;2023-04-03T03:26:20;6.22;;;6.22;;
2710;SDS011;20721;47.402;8.550;2023-04-03T03:27:22;6.48;;;6.48;;
2710;SDS011;20721;47.402;8.550;2023-04-03T03:28:21;6.02;;;6.02;;
2710;SDS011;20721;47.402;8.550;2023-04-03T03:29:20;6.78;;;6.78;;
2710;SDS011;20721;47.402;8.550;2023-04-03T03:30:20;6.69;;;6.69;;
2710;SDS011;20721;47.402;8.550;2023-04-03T03:31:20;6.96;;;6.96;;
2710;SDS011;20721;47.402;8.550;2023-04-03T03:32:20;6.22;;;6.22;;
2710;SDS011;20721;47.402;8.550;2023-04-03T03:33:20;6.52;;;6.52;;
2710;SDS011;20721;47.402;8.550;2023-04-03T03:34:20;6.26;;;6.26;;
2710;SDS011;20721;47.402;8.550;2023-04-03T03:35:20;7.28;;;7.28;;
2710;SDS011;20721;47.402;8.550;2023-04-03T03:37:20;6.84;;;6.84;;
2710;SDS011;20721;47.402;8.550;2023-04-03T03:38:20;6.77;;;6.77;;
2710;SDS011;20721;47.402;8.550;2023-04-03T03:39:20;6.58;;;6.58;;
2710;SDS011;20721;47.402;8.550;2023-04-03T03:40:22;6.91;;;6.91;;
2710;SDS011;20721;47.402;8.550;2023-04-03T03:41:20;7.12;;;7.12;;
2710;SDS011;20721;47.402;8.550;2023-04-03T03:42:21;6.90;;;6.90;;
2710;SDS011;20721;47.402;8.550;2023-04-03T03:43:20;7.44;;;7.44;;
2710;SDS011;20721;47.402;8.550;2023-04-03T03:44:20;6.72;;;6.72;;
2710;SDS011;20721;47.402;8.550;2023-04-03T03:45:20;6.96;;;6.96;;
2710;SDS011;20721;47.402;8.550;2023-04-03T03:46:20;6.67;;;6.67;;
2710;SDS011;20721;47.402;8.550;2023-04-03T03:47:21;7.08;;;7.08;;
2710;SDS011;20721;47.402;8.550;2023-04-03T03:48:21;7.69;;;7.69;;
2710;SDS011;20721;47.402;8.550;2023-04-03T03:49:21;7.01;;;7.01;;
2710;SDS011;20721;47.402;8.550;2023-04-03T03:50:20;7.09;;;7.09;;
2710;SDS011;20721;47.402;8.550;2023-04-03T03:51:20;8.65;;;8.65;;
2710;SDS011;20721;47.402;8.550;2023-04-03T03:52:20;7.62;;;7.62;;
2710;SDS011;20721;47.402;8.550;2023-04-03T03:53:20;7.27;;;7.27;;
2710;SDS011;20721;47.402;8.550;2023-04-03T03:54:20;8.21;;;8.21;;
2710;SDS011;20721;47.402;8.550;2023-04-03T03:55:20;7.64;;;7.64;;
2710;SDS011;20721;47.402;8.550;2023-04-03T03:56:20;6.63;;;6.63;;
2710;SDS011;20721;47.402;8.550;2023-04-03T03:57:20;7.61;;;7.61;;
2710;SDS011;20721;47.402;8.550;2023-04-03T03:58:20;8.06;;;8.06;;
2710;SDS011;20721;47.402;8.550;2023-04-03T03:59:21;7.31;;;7.31;;
2710;SDS011;20721;47.402;8.550;2023-04-03T04:00:21;7.45;;;7.45;;
2710;SDS011;20721;47.402;8.550;2023-04-03T04:01:20;7.90;;;7.90;;
2710;SDS011;20721;47.402;8.550;2023-04-03T04:02:20;7.80;;;7.80;;
2710;SDS011;20721;47.402;8.550;2023-04-03T04:03:20;7.28;;;7.28;;
2710;SDS011;20721;47.402;8.550;2023-04-03T04:04:20;7.35;;;7.35;;
2710;SDS011;20721;47.402;8.550;2023-04-03T04:05:20;8.71;;;8.71;;
2710;SDS011;20721;47.402;8.550;2023-04-03T04:06:20;7.74;;;7.74;;
2710;SDS011;20721;47.402;8.550;2023-04-03T04:07:20;7.40;;;7.40;;
2710;SDS011;20721;47.402;8.550;2023-04-03T04:08:20;7.67;;;7.67;;
2710;SDS011;20721;47.402;8.550;2023-04-03T04:09:21;8.37;;;8.37;;
2710;SDS011;20721;47.402;8.550;2023-04-03T04:10:20;8.03;;;8.03;;
2710;SDS011;20721;47.402;8.550;2023-04-03T04:12:20;9.20;;;9.20;;
2710;SDS011;20721;47.402;8.550;2023-04-03T04:13:20;8.47;;;8.47;;
2710;SDS011;20721;47.402;8.550;2023-04-03T04:14:22;9.12;;;9.12;;
2710;SDS011;20721;47.402;8.550;2023-04-03T04:16:20;8.09;;;8.09;;
2710;SDS011;20721;47.402;8.550;2023-04-03T04:17:21;8.44;;;8.22;;
2710;SDS011;20721;47.402;8.550;2023-04-03T04:18:21;8.74;;;8.74;;
2710;SDS011;20721;47.402;8.550;2023-04-03T04:19:20;9.25;;;9.24;;
2710;SDS011;20721;47.402;8.550;2023-04-03T04:20:21;9.54;;;9.10;;
2710;SDS011;20721;47.402;8.550;2023-04-03T04:21:21;8.43;;;8.43;;
2710;SDS011;20721;47.402;8.550;2023-04-03T04:22:20;8.35;;;8.35;;
2710;SDS011;20721;47.402;8.550;2023-04-03T04:23:20;8.99;;;8.99;;
2710;SDS011;20721;47.402;8.550;2023-04-03T04:24:21;8.87;;;8.87;;
2710;SDS011;20721;47.402;8.550;2023-04-03T04:25:20;9.05;;;9.05;;
2710;SDS011;20721;47.402;8.550;2023-04-03T04:26:20;8.41;;;8.41;;
2710;SDS011;20721;47.402;8.550;2023-04-03T04:27:20;8.27;;;8.27;;
2710;SDS011;20721;47.402;8.550;2023-04-03T04:28:20;8.87;;;8.87;;
2710;SDS011;20721;47.402;8.550;2023-04-03T04:29:20;9.55;;;9.55;;
2710;SDS011;20721;47.402;8.550;2023-04-03T04:30:21;8.39;;;8.39;;
2710;SDS011;20721;47.402;8.550;2023-04-03T04:31:20;9.18;;;9.18;;
2710;SDS011;20721;47.402;8.550;2023-04-03T04:32:20;8.71;;;8.71;;
2710;SDS011;20721;47.402;8.550;2023-04-03T04:33:21;9.46;;;9.37;;
2710;SDS011;20721;47.402;8.550;2023-04-03T04:34:21;8.55;;;8.55;;
2710;SDS011;20721;47.402;8.550;2023-04-03T04:35:21;8.45;;;8.45;;
2710;SDS011;20721;47.402;8.550;2023-04-03T04:36:21;9.04;;;8.92;;
2710;SDS011;20721;47.402;8.550;2023-04-03T04:37:20;9.10;;;8.74;;
2710;SDS011;20721;47.402;8.550;2023-04-03T04:38:20;9.61;;;9.25;;
2710;SDS011;20721;47.402;8.550;2023-04-03T04:39:20;8.86;;;8.86;;
2710;SDS011;20721;47.402;8.550;2023-04-03T04:40:21;7.84;;;7.84;;
2710;SDS011;20721;47.402;8.550;2023-04-03T04:41:20;9.39;;;9.17;;
2710;SDS011;20721;47.402;8.550;2023-04-03T04:42:22;9.20;;;9.07;;
2710;SDS011;20721;47.402;8.550;2023-04-03T04:43:24;8.85;;;8.85;;
2710;SDS011;20721;47.402;8.550;2023-04-03T04:44:20;8.90;;;8.89;;
2710;SDS011;20721;47.402;8.550;2023-04-03T04:45:20;8.30;;;8.30;;
2710;SDS011;20721;47.402;8.550;2023-04-03T04:46:22;8.94;;;8.94;;
2710;SDS011;20721;47.402;8.550;2023-04-03T04:47:20;8.92;;;8.92;;
2710;SDS011;20721;47.402;8.550;2023-04-03T04:48:20;8.28;;;8.28;;
2710;SDS011;20721;47.402;8.550;2023-04-03T04:49:20;8.75;;;8.75;;
2710;SDS011;20721;47.402;8.550;2023-04-03T04:50:21;8.46;;;8.46;;
2710;SDS011;20721;47.402;8.550;2023-04-03T04:51:21;8.50;;;8.50;;
2710;SDS011;20721;47.402;8.550;2023-04-03T04:52:20;8.74;;;8.74;;
2710;SDS011;20721;47.402;8.550;2023-04-03T04:53:20;8.36;;;8.36;;
2710;SDS011;20721;47.402;8.550;2023-04-03T04:54:20;8.52;;;8.52;;
2710;SDS011;20721;47.402;8.550;2023-04-03T04:56:20;8.45;;;8.45;;
2710;SDS011;20721;47.402;8.550;2023-04-03T04:57:20;8.35;;;8.35;;
2710;SDS011;20721;47.402;8.550;2023-04-03T04:58:21;8.76;;;8.76;;
2710;SDS011;20721;47.402;8.550;2023-04-03T04:59:20;9.58;;;9.58;;
2710;SDS011;20721;47.402;8.550;2023-04-03T05:00:21;8.49;;;8.49;;
2710;SDS011;20721;47.402;8.550;2023-04-03T05:01:20;9.28;;;9.28;;
2710;SDS011;20721;47.402;8.550;2023-04-03T05:02:20;9.36;;;9.36;;
2710;SDS011;20721;47.402;8.550;2023-04-03T05:03:21;8.97;;;8.97;;
2710;SDS011;20721;47.402;8.550;2023-04-03T05:04:22;9.28;;;9.28;;
2710;SDS011;20721;47.402;8.550;2023-04-03T05:06:20;8.98;;;8.98;;
2710;SDS011;20721;47.402;8.550;2023-04-03T05:08:21;9.13;;;9.13;;
2710;SDS011;20721;47.402;8.550;2023-04-03T05:09:21;9.35;;;9.35;;
2710;SDS011;20721;47.402;8.550;2023-04-03T05:10:21;9.04;;;9.04;;
2710;SDS011;20721;47.402;8.550;2023-04-03T05:11:21;9.13;;;9.13;;
2710;SDS011;20721;47.402;8.550;2023-04-03T05:12:20;8.70;;;8.69;;
2710;SDS011;20721;47.402;8.550;2023-04-03T05:13:20;9.36;;;9.35;;
2710;SDS011;20721;47.402;8.550;2023-04-03T05:15:20;8.45;;;8.45;;
2710;SDS011;20721;47.402;8.550;2023-04-03T05:16:21;9.14;;;9.14;;
2710;SDS011;20721;47.402;8.550;2023-04-03T05:17:20;9.16;;;9.16;;
2710;SDS011;20721;47.402;8.550;2023-04-03T05:18:20;8.83;;;8.83;;
2710;SDS011;20721;47.402;8.550;2023-04-03T05:19:21;9.30;;;8.84;;
2710;SDS011;20721;47.402;8.550;2023-04-03T05:20:21;8.87;;;8.87;;
2710;SDS011;20721;47.402;8.550;2023-04-03T05:21:20;9.45;;;9.45;;
2710;SDS011;20721;47.402;8.550;2023-04-03T05:22:20;9.30;;;9.30;;
2710;SDS011;20721;47.402;8.550;2023-04-03T05:23:21;9.37;;;9.37;;
2710;SDS011;20721;47.402;8.550;2023-04-03T05:24:20;7.93;;;7.93;;
2710;SDS011;20721;47.402;8.550;2023-04-03T05:25:20;8.53;;;8.53;;
2710;SDS011;20721;47.402;8.550;2023-04-03T05:26:21;8.22;;;8.22;;
2710;SDS011;20721;47.402;8.550;2023-04-03T05:27:21;8.55;;;8.55;;
2710;SDS011;20721;47.402;8.550;2023-04-03T05:28:21;9.29;;;9.29;;
2710;SDS011;20721;47.402;8.550;2023-04-03T05:29:21;8.28;;;8.28;;
2710;SDS011;20721;47.402;8.550;2023-04-03T05:30:21;8.10;;;8.10;;
2710;SDS011;20721;47.402;8.550;2023-04-03T05:31:20;8.11;;;8.11;;
2710;SDS011;20721;47.402;8.550;2023-04-03T05:32:22;7.69;;;7.69;;
2710;SDS011;20721;47.402;8.550;2023-04-03T05:33:21;8.28;;;8.28;;
2710;SDS011;20721;47.402;8.550;2023-04-03T05:34:21;7.96;;;7.96;;
2710;SDS011;20721;47.402;8.550;2023-04-03T05:35:21;7.15;;;7.15;;
2710;SDS011;20721;47.402;8.550;2023-04-03T05:36:22;8.04;;;8.04;;
2710;SDS011;20721;47.402;8.550;2023-04-03T05:37:21;6.52;;;6.52;;
2710;SDS011;20721;47.402;8.550;2023-04-03T05:38:21;7.00;;;7.00;;
2710;SDS011;20721;47.402;8.550;2023-04-03T05:39:21;7.57;;;7.57;;
2710;SDS011;20721;47.402;8.550;2023-04-03T05:40:21;7.07;;;7.07;;
2710;SDS011;20721;47.402;8.550;2023-04-03T05:41:21;6.94;;;6.94;;
2710;SDS011;20721;47.402;8.550;2023-04-03T05:42:22;7.88;;;7.88;;
2710;SDS011;20721;47.402;8.550;2023-04-03T05:43:21;7.19;;;7.12;;
2710;SDS011;20721;47.402;8.550;2023-04-03T05:44:20;8.06;;;8.06;;
2710;SDS011;20721;47.402;8.550;2023-04-03T05:45:20;7.17;;;7.09;;
2710;SDS011;20721;47.402;8.550;2023-04-03T05:46:21;8.03;;;7.75;;
2710;SDS011;20721;47.402;8.550;2023-04-03T05:47:21;7.74;;;7.74;;
2710;SDS011;20721;47.402;8.550;2023-04-03T05:48:22;6.91;;;6.85;;
2710;SDS011;20721;47.402;8.550;2023-04-03T05:49:20;6.73;;;6.73;;
2710;SDS011;20721;47.402;8.550;2023-04-03T05:50:21;7.35;;;7.35;;
2710;SDS011;20721;47.402;8.550;2023-04-03T05:51:25;6.81;;;6.81;;
2710;SDS011;20721;47.402;8.550;2023-04-03T05:52:28;7.29;;;7.29;;
2710;SDS011;20721;47.402;8.550;2023-04-03T05:53:31;7.19;;;7.19;;
2710;SDS011;20721;47.402;8.550;2023-04-03T05:54:24;6.73;;;6.73;;
2710;SDS011;20721;47.402;8.550;2023-04-03T05:55:21;7.58;;;7.58;;
2710;SDS011;20721;47.402;8.550;2023-04-03T05:56:21;7.07;;;7.07;;
2710;SDS011;20721;47.402;8.550;2023-04-03T05:57:21;6.78;;;6.78;;
2710;SDS011;20721;47.402;8.550;2023-04-03T05:58:22;6.99;;;6.99;;
2710;SDS011;20721;47.402;8.550;2023-04-03T05:59:21;7.54;;;7.54;;
2710;SDS011;20721;47.402;8.550;2023-04-03T06:00:22;7.17;;;7.17;;
2710;SDS011;20721;47.402;8.550;2023-04-03T06:01:21;7.39;;;7.39;;
2710;SDS011;20721;47.402;8.550;2023-04-03T06:02:23;7.12;;;7.12;;
2710;SDS011;20721;47.402;8.550;2023-04-03T06:03:21;7.82;;;7.67;;
2710;SDS011;20721;47.402;8.550;2023-04-03T06:04:21;6.96;;;6.93;;
2710;SDS011;20721;47.402;8.550;2023-04-03T06:05:22;7.84;;;7.75;;
2710;SDS011;20721;47.402;8.550;2023-04-03T06:06:22;7.75;;;7.75;;
2710;SDS011;20721;47.402;8.550;2023-04-03T06:07:23;7.94;;;7.94;;
2710;SDS011;20721;47.402;8.550;2023-04-03T06:08:21;7.59;;;7.59;;
2710;SDS011;20721;47.402;8.550;2023-04-03T06:09:23;6.61;;;6.61;;
2710;SDS011;20721;47.402;8.550;2023-04-03T06:10:22;8.08;;;8.08;;
2710;SDS011;20721;47.402;8.550;2023-04-03T06:11:21;7.47;;;7.47;;
2710;SDS011;20721;47.402;8.550;2023-04-03T06:12:21;7.16;;;7.16;;
2710;SDS011;20721;47.402;8.550;2023-04-03T06:13:20;7.35;;;7.35;;
2710;SDS011;20721;47.402;8.550;2023-04-03T06:14:21;7.92;;;7.92;;
2710;SDS011;20721;47.402;8.550;2023-04-03T06:15:21;7.15;;;7.15;;
2710;SDS011;20721;47.402;8.550;2023-04-03T06:16:22;7.61;;;7.61;;
2710;SDS011;20721;47.402;8.550;2023-04-03T06:17:22;7.11;;;7.11;;
2710;SDS011;20721;47.402;8.550;2023-04-03T06:18:21;7.44;;;7.44;;
2710;SDS011;20721;47.402;8.550;2023-04-03T06:19:21;7.02;;;7.02;;
2710;SDS011;20721;47.402;8.550;2023-04-03T06:20:21;7.12;;;7.12;;
2710;SDS011;20721;47.402;8.550;2023-04-03T06:21:21;6.58;;;6.58;;
2710;SDS011;20721;47.402;8.550;2023-04-03T06:22:21;7.53;;;7.53;;
2710;SDS011;20721;47.402;8.550;2023-04-03T06:23:21;7.61;;;7.60;;
2710;SDS011;20721;47.402;8.550;2023-04-03T06:24:23;6.64;;;6.55;;
2710;SDS011;20721;47.402;8.550;2023-04-03T06:25:21;6.09;;;6.09;;
2710;SDS011;20721;47.402;8.550;2023-04-03T06:26:21;6.68;;;6.68;;
2710;SDS011;20721;47.402;8.550;2023-04-03T06:27:21;6.97;;;6.97;;
2710;SDS011;20721;47.402;8.550;2023-04-03T06:28:21;6.84;;;6.84;;
2710;SDS011;20721;47.402;8.550;2023-04-03T06:29:21;6.62;;;6.62;;
2710;SDS011;20721;47.402;8.550;2023-04-03T06:30:21;6.43;;;6.43;;